Middle Georgia Regional Airport Airport (MCN)

 

Airport Diagram
Current Weather/Forecast (VFR Conditions)
METAR KMCN 260553Z AUTO 29005KT 10SM CLR 12/12 A2999 RMK AO2 SLP154 60034 T01220122 10217 20122 56001
TAF KMCN 260520Z 2606/2706 29004KT 2SM BR FEW030 TEMPO 2606/2608 1/2SM FG VV002 FM261100 32006KT P6SM SCT020 FM261500 02007KT P6SM VCSH BKN025 PROB30 2619/2623 6SM -SHRA FM262300 05009KT P6SM BKN045 FM270400 05006KT P6SM SCT050 SCT250

All Charts
General
Chart Name Download
AIRPORT DIAGRAM
TAKEOFF MINIMUMS
ALTERNATE MINIMUMS

Approaches
Chart Name Download
ILS OR LOC RWY 05
ILS RWY 05 (SA CAT I - II)
RNAV (GPS) RWY 05
RNAV (GPS) RWY 14
RNAV (GPS) RWY 23
RNAV (GPS) RWY 32
VOR RWY 14
VOR RWY 23


Inbound Traffic (Arrivals)

No inbound traffic.


Outbound Traffic (Departures)

No outbound traffic.